Latest Coastal Weather Observations for Horn Island

IDQ60701

Issued at 12:05 pm EST Saturday 30 August 2014 (issued every 10 minutes, with the page automatically refreshed every 10 minutes)

About coastal observations | Map of coastal stations | Coastal observations for QLD | Marine services | Other Formats
Station Details ID: 027058 Name: HORN ISLAND Lat: -10.58 Lon: 142.29 Height: 4.0 m
Data from the previous 72 hours. | See also: Recent months at Horn Island
Date/Time
EST
Temp

°C
Wind Pressure Rain
since 9am
mm
Weather Cloud Vis
km
Sea
Height
m
Swell
Dir
 
Speed
knots
Gust
knots
hPa Trend Height
m
Period
s
Dir
30/12:00pm 28.5 ESE 17 22 1013.9 - 0.0 - Cloudy 10 - - - -
30/11:30am 29.0 E 18 24 1014.3 - 0.0 - - - - - - -
30/11:00am 28.0 ESE 17 22 1014.9 - 0.0 - Partly cloudy 10 - - - -
30/10:30am 28.2 ESE 16 24 1015.2 - 0.0 - Cloudy 10 - - - -
30/10:00am 26.2 ESE 15 20 1015.3 - 0.0 - Partly cloudy 10 - - - -
30/09:30am 26.4 ESE 15 20 1015.2 - 0.0 - Partly cloudy 10 - - - -
30/09:00am 25.8 ESE 13 19 1015.1 - 0.0 - Cloudy 10 - - - -
30/08:30am 26.0 ESE 12 16 1015.1 - 0.0 - Partly cloudy 10 - - - -
30/08:00am 25.1 SE 11 15 1014.8 - 0.0 - Partly cloudy 10 - - - -
30/07:30am 24.6 SE 10 14 1014.4 - 0.0 - - 10 - - - -
30/07:00am 24.1 SE 9 13 1014.0 - 0.0 - Partly cloudy 10 - - - -
30/06:30am 23.9 SE 9 13 1013.8 - 0.0 - - 10 - - - -
30/06:00am 23.9 SE 10 15 1013.4 - 0.0 - Cloudy 10 - - - -
30/05:30am 24.0 SE 10 15 1013.2 - 0.0 - Partly cloudy 10 - - - -
30/05:00am 24.0 SE 10 16 1013.0 - 0.0 - Partly cloudy 10 - - - -
30/04:30am 24.0 SE 12 17 1012.8 - 0.0 - Partly cloudy 10 - - - -
30/04:00am 24.1 SE 12 19 1012.9 - 0.0 - - 10 - - - -
30/03:30am 24.1 SE 15 19 1012.9 - 0.0 - - 10 - - - -
30/03:00am 24.1 ESE 13 18 1013.0 - 0.0 - Cloudy 10 - - - -
30/02:30am 24.2 ESE 14 22 1013.1 - 0.0 - Partly cloudy 10 - - - -
30/02:00am 24.3 ESE 16 24 1013.4 - 0.0 - Partly cloudy 10 - - - -
30/01:30am 24.2 SE 12 19 1013.5 - 0.0 - Partly cloudy 10 - - - -
30/01:00am 24.1 SE 13 17 1013.7 - 0.0 - Partly cloudy 10 - - - -
30/12:30am 24.1 SE 14 20 1013.7 - 0.0 - Partly cloudy 10 - - - -
30/12:00am 24.2 ESE 16 22 1013.9 - 0.0 - Cloudy 10 - - - -
 
Date/Time
EST
Temp

°C
Wind Pressure Rain
since 9am
mm
Weather Cloud Vis
km
Sea
Height
m
Swell
Dir
 
Speed
knots
Gust
knots
hPa Trend Height
m
Period
s
Dir
29/11:30pm 24.2 ESE 12 19 1014.3 - 0.0 - Partly cloudy 10 - - - -
29/11:00pm 24.2 SE 12 17 1014.0 - 0.0 - Partly cloudy 10 - - - -
29/10:30pm 24.1 SE 13 18 1014.1 - 0.0 - Partly cloudy 10 - - - -
29/10:00pm 24.1 SE 14 20 1013.9 - 0.0 - - 10 - - - -
29/09:30pm 24.0 SE 12 16 1013.8 - 0.0 - - 10 - - - -
29/09:00pm 24.0 SE 14 19 1013.7 - 0.0 - - 10 - - - -
29/08:30pm 24.0 SE 13 20 1013.8 - 0.0 - Cloudy 10 - - - -
29/08:00pm 24.0 SE 12 19 1013.6 - 0.0 - - 10 - - - -
29/07:30pm 24.2 SE 14 20 1013.4 - 0.0 - Cloudy 10 - - - -
29/07:00pm 24.3 SE 13 21 1012.9 - 0.0 - Partly cloudy 10 - - - -
29/06:30pm 24.5 SE 17 25 1012.4 - 0.0 - - 10 - - - -
29/06:15pm 24.8 SE 16 26 1012.1 - 0.0 - - 10 - - - -
29/06:00pm 25.0 SE 18 25 1011.9 - 0.0 - - 10 - - - -
29/05:30pm 25.4 ESE 17 24 1011.7 - 0.0 - - 10 - - - -
29/05:00pm 26.2 ESE 21 31 1011.6 - 0.0 - - 10 - - - -
29/04:51pm 26.3 ESE 18 31 1011.7 - 0.0 - - 10 - - - -
29/04:30pm 26.3 ESE 19 27 1011.6 - 0.0 - - 10 - - - -
29/04:00pm 27.2 ESE 18 26 1011.5 - 0.0 - - 10 - - - -
29/03:30pm 27.1 ESE 21 27 1011.4 - 0.0 - - 10 - - - -
29/03:06pm 27.3 ESE 19 29 1011.6 - 0.0 - Partly cloudy 10 - - - -
29/03:00pm 27.3 ESE 20 29 1011.6 - 0.0 - Cloudy 10 - - - -
29/02:30pm 27.4 ESE 20 27 1011.7 - 0.0 - - 10 - - - -
29/02:00pm 28.1 ESE 19 27 1011.9 - 0.0 - Partly cloudy 10 - - - -
29/01:30pm 28.1 ESE 20 27 1012.3 - 0.0 - Partly cloudy 10 - - - -
29/01:00pm 27.1 ESE 22 29 1012.6 - 0.0 - Partly cloudy 10 - - - -
29/12:30pm 27.7 ESE 21 26 1013.1 - 0.0 - Partly cloudy 10 - - - -
29/12:00pm 27.4 ESE 20 26 1013.4 - 0.0 - Cloudy 10 - - - -
29/11:30am 27.4 ESE 20 25 1013.8 - 0.0 - - 10 - - - -
29/11:00am 27.1 ESE 21 27 1014.2 - 0.0 - Partly cloudy 10 - - - -
29/10:30am 27.0 ESE 18 28 1014.6 - 0.0 - Partly cloudy 10 - - - -
29/10:27am 27.3 ESE 18 28 1014.6 - 0.0 - Partly cloudy 10 - - - -
29/10:00am 26.6 ESE 18 24 1014.7 - 0.0 - Partly cloudy 10 - - - -
29/09:30am 26.2 ESE 19 25 1014.5 - 0.0 - Partly cloudy 10 - - - -
29/09:00am 25.9 ESE 18 24 1014.2 - 0.0 - Cloudy 10 - - - -
29/08:30am 25.0 ESE 18 24 1014.1 - 0.0 - Partly cloudy 10 - - - -
29/08:00am 24.5 ESE 14 20 1013.8 - 0.0 - Partly cloudy 10 - - - -
29/07:30am 24.1 ESE 15 22 1013.4 - 0.0 - - 10 - - - -
29/07:00am 23.8 ESE 15 20 1013.1 - 0.0 - Partly cloudy 10 - - - -
29/06:30am 23.8 ESE 16 22 1013.1 - 0.0 - Partly cloudy 10 - - - -
29/06:00am 23.8 ESE 17 21 1013.0 - 0.0 - - 10 - - - -
29/05:30am 23.8 ESE 15 21 1012.9 - 0.0 - Partly cloudy 10 - - - -
29/05:00am 23.8 ESE 15 21 1012.6 - 0.0 - Partly cloudy 10 - - - -
29/04:30am 23.8 ESE 16 23 1012.6 - 0.0 - - 10 - - - -
29/04:13am 23.8 ESE 16 26 1012.6 - 0.0 - - 10 - - - -
29/04:00am 23.8 ESE 15 20 1012.6 - 0.0 - Partly cloudy 10 - - - -
29/03:30am 23.9 ESE 16 23 1012.6 - 0.0 - Partly cloudy 10 - - - -
29/03:00am 23.9 ESE 18 24 1012.6 - 0.0 - Cloudy 10 - - - -
29/02:30am 24.1 ESE 18 23 1012.9 - 0.0 - Partly cloudy 10 - - - -
29/02:00am 24.1 ESE 17 25 1013.2 - 0.0 - Partly cloudy 10 - - - -
29/01:30am 24.0 ESE 18 26 1013.3 - 0.0 - - 10 - - - -
29/01:00am 23.9 ESE 18 22 1013.4 - 0.0 - - 10 - - - -
29/12:30am 24.0 ESE 17 23 1013.7 - 0.0 - - 10 - - - -
29/12:00am 24.1 ESE 19 25 1014.0 - 0.0 - - 10 - - - -
 
Date/Time
EST
Temp

°C
Wind Pressure Rain
since 9am
mm
Weather Cloud Vis
km
Sea
Height
m
Swell
Dir
 
Speed
knots
Gust
knots
hPa Trend Height
m
Period
s
Dir
28/11:30pm 24.0 ESE 17 24 1014.3 - 0.0 - Partly cloudy 10 - - - -
28/11:00pm 24.0 ESE 16 24 1014.4 - 0.0 - Partly cloudy 10 - - - -
28/10:30pm 24.0 SE 15 21 1014.4 - 0.0 - - 10 - - - -
28/10:00pm 23.9 SE 15 22 1014.3 - 0.0 - - 10 - - - -
28/09:30pm 24.0 SE 15 20 1014.1 - 0.0 - - 10 - - - -
28/09:00pm 23.9 SE 13 19 1014.0 - 0.0 - - 10 - - - -
28/08:30pm 23.9 SE 12 17 1013.8 - 0.0 - - 10 - - - -
28/08:00pm 24.1 SE 14 21 1013.6 - 0.0 - - 10 - - - -
28/07:30pm 24.3 SE 14 20 1013.3 - 0.0 - - 10 - - - -
28/07:00pm 24.6 SE 16 24 1012.8 - 0.0 - - 10 - - - -
28/06:30pm 25.0 SE 12 17 1012.3 - 0.0 - - 10 - - - -
28/06:00pm 25.5 SE 13 19 1012.1 - 0.0 - - 10 - - - -
28/05:30pm 25.9 ESE 17 25 1011.7 - 0.0 - - 10 - - - -
28/05:00pm 26.4 ESE 18 23 1011.6 - 0.0 - - 10 - - - -
28/04:30pm 26.6 ESE 18 24 1011.4 - 0.0 - - 10 - - - -
28/04:00pm 27.0 ESE 20 25 1011.4 - 0.0 - - 10 - - - -
28/03:30pm 27.4 ESE 19 27 1011.6 - 0.0 - - 10 - - - -
28/03:00pm 27.4 SE 18 24 1011.8 - 0.0 - - 10 - - - -
28/02:30pm 27.1 SE 19 25 1012.2 - 0.0 - Partly cloudy 10 - - - -
28/02:00pm 27.3 ESE 17 25 1012.4 - 0.0 - Partly cloudy 10 - - - -
28/01:30pm 27.5 ESE 18 25 1012.6 - 0.0 - Partly cloudy 10 - - - -
28/01:00pm 28.7 ESE 18 25 1012.9 - 0.0 - Partly cloudy 10 - - - -
28/12:30pm 28.0 ESE 20 27 1013.1 - 0.0 - Partly cloudy 10 - - - -
28/12:00pm 27.3 ESE 19 26 1013.3 - 0.0 - Cloudy 10 - - - -
28/11:30am 27.5 ESE 19 26 1013.6 - 0.0 - - 10 - - - -
28/11:00am 27.3 ESE 19 25 1013.7 - 0.0 - Partly cloudy 10 - - - -
28/10:30am 27.1 ESE 19 24 1013.9 - 0.0 - Partly cloudy 10 - - - -
28/10:00am 26.2 SE 17 23 1014.1 - 0.0 - Partly cloudy 10 - - - -
28/09:30am 26.4 ESE 17 22 1014.2 - 0.0 - Partly cloudy 10 - - - -
28/09:00am 25.8 ESE 16 21 1014.1 - 0.0 - Cloudy 10 - - - -
28/08:30am 25.7 ESE 13 18 1013.8 - 0.0 - Partly cloudy 10 - - - -
28/08:00am 24.9 ESE 13 18 1013.6 - 0.0 - Partly cloudy 10 - - - -
28/07:30am 24.5 SE 13 16 1013.3 - 0.0 - Partly cloudy 10 - - - -
28/07:00am 24.4 SE 11 16 1013.0 - 0.0 - Partly cloudy 10 - - - -
28/06:30am 24.3 SE 13 16 1012.7 - 0.0 - Partly cloudy 10 - - - -
28/06:00am 24.2 SE 12 16 1012.5 - 0.0 - Cloudy 10 - - - -
28/05:30am 24.1 SE 12 17 1012.4 - 0.0 - Cloudy 10 - - - -
28/05:00am 24.1 SE 10 14 1012.3 - 0.0 - Cloudy 10 - - - -
28/04:30am 24.0 SE 10 15 1012.4 - 0.0 - Cloudy 10 - - - -
28/04:00am 23.7 SE 9 12 1012.6 - 0.0 - Partly cloudy 10 - - - -
28/03:30am 23.7 SE 10 14 1012.6 - 0.0 - - 10 - - - -
28/03:00am 23.7 SE 11 16 1012.9 - 0.0 - - 10 - - - -
28/02:30am 23.8 SE 11 15 1013.1 - 0.0 - - 10 - - - -
28/02:00am 23.9 SE 10 14 1013.1 - 0.0 - Partly cloudy 10 - - - -
28/01:30am 24.0 SE 12 17 1013.3 - 0.0 - Partly cloudy 10 - - - -
28/01:00am 24.1 SE 11 17 1013.5 - 0.0 - Partly cloudy 10 - - - -
28/12:30am 24.2 SE 12 19 1013.7 - 0.0 - Partly cloudy 10 - - - -
28/12:00am 24.2 SE 11 15 1013.9 - 0.0 - Cloudy 10 - - - -
 
Date/Time
EST
Temp

°C
Wind Pressure Rain
since 9am
mm
Weather Cloud Vis
km
Sea
Height
m
Swell
Dir
 
Speed
knots
Gust
knots
hPa Trend Height
m
Period
s
Dir
27/11:30pm 24.0 SE 11 14 1013.9 - 0.0 - Partly cloudy 10 - - - -
27/11:00pm 24.0 SE 13 17 1013.8 - 0.0 - Partly cloudy 10 - - - -
27/10:30pm 23.9 SE 11 15 1013.9 - 0.0 - - 10 - - - -
27/10:00pm 24.0 SE 12 19 1013.9 - 0.0 - - 10 - - - -
27/09:30pm 24.1 SE 11 16 1013.8 - 0.0 - - 10 - - - -
27/09:00pm 24.1 SE 10 14 1013.6 - 0.0 - Cloudy 10 - - - -
27/08:30pm 24.2 SE 12 17 1013.2 - 0.0 - Partly cloudy 10 - - - -
27/08:00pm 24.3 SE 13 19 1012.8 - 0.0 - Partly cloudy 10 - - - -
27/07:30pm 24.4 SE 12 17 1012.4 - 0.0 - Partly cloudy 10 - - - -
27/07:00pm 24.6 SE 15 22 1012.0 - 0.0 - - 10 - - - -
27/06:30pm 24.8 ESE 16 22 1011.5 - 0.0 - - 10 - - - -
27/06:00pm 25.4 ESE 15 19 1011.1 - 0.0 - - 10 - - - -
27/05:30pm 26.1 ESE 17 23 1010.9 - 0.0 - - 10 - - - -
27/05:04pm 26.3 ESE 16 25 1010.8 - 0.0 - - 10 - - - -
27/05:00pm 26.6 ESE 16 23 1010.7 - 0.0 - - 10 - - - -
27/04:52pm 26.5 ESE 18 25 1010.7 - 0.0 - - 3 - - - -
27/04:30pm 27.0 ESE 18 26 1010.7 - 0.0 - - - - - - -
27/04:20pm 27.7 ESE 18 28 1010.7 - 0.0 - - - - - - -
27/04:00pm 27.7 ESE 18 26 1010.7 - 0.0 - - - - - - -
27/03:30pm 27.6 ESE 19 26 1010.7 - 0.0 - - - - - - -
27/03:00pm 28.0 ESE 19 27 1010.9 - 0.0 - - - - - - -
27/02:30pm 27.9 ESE 20 25 1011.1 - 0.0 - - - - - - -
27/02:00pm 28.1 ESE 21 27 1011.5 - 0.0 - Partly cloudy - - - - -
27/01:30pm 28.2 ESE 21 27 1011.8 - 0.0 - Partly cloudy - - - - -
27/01:00pm 28.4 ESE 20 26 1012.2 - 0.0 - Partly cloudy - - - - -
27/12:30pm 28.7 ESE 21 26 1012.5 - 0.0 - - - - - - -

Other Formats:

Comma delimited format used in spreadsheet applications
http://www.bom.gov.au/fwo/IDQ60701/IDQ60701.94174.axf

JavaScript Object Notation format (JSON) in row-major order
http://www.bom.gov.au/fwo/IDQ60701/IDQ60701.94174.json